Time;durP1;ratioP1;P1;durP2;ratioP2;P2;SDS_P1;SDS_P2;PMS_P1;PMS_P2;Temp;Humidity;BMP_temperature;BMP_pressure;BME280_temperature;BME280_humidity;BME280_pressure;Samples;Min_cycle;Max_cycle;Signal;HPM_P1;HPM_P2
2023/04/11 00:02:06;;;;;;;30.52;18.90;;;;;;;;;;5034686;28;20345;-56
2023/04/11 00:04:33;;;;;;;32.25;20.67;;;;;;;;;;5034484;28;20044;-56
2023/04/11 00:06:59;;;;;;;29.50;19.10;;;;;;;;;;5034099;28;20480;-55
2023/04/11 00:09:24;;;;;;;37.53;20.60;;;;;;;;;;5033778;28;20064;-56
2023/04/11 00:11:49;;;;;;;35.25;21.23;;;;;;;;;;5034352;28;20491;-55
2023/04/11 00:14:16;;;;;;;33.20;21.75;;;;;;;;;;5033693;28;20033;-55
2023/04/11 00:16:41;;;;;;;51.13;26.52;;;;;;;;;;5016394;28;20021;-56
2023/04/11 00:19:08;;;;;;;43.85;24.55;;;;;;;;;;5034131;28;20037;-56
2023/04/11 00:21:34;;;;;;;33.30;21.10;;;;;;;;;;5034189;28;20075;-56
2023/04/11 00:23:59;;;;;;;34.72;19.65;;;;;;;;;;5034168;28;20037;-56
2023/04/11 00:26:25;;;;;;;31.42;20.10;;;;;;;;;;5033928;28;20037;-56
2023/04/11 00:28:50;;;;;;;30.60;20.17;;;;;;;;;;5033875;28;20037;-56
2023/04/11 00:31:17;;;;;;;31.75;20.52;;;;;;;;;;4999611;28;20029;-56
2023/04/11 00:33:42;;;;;;;45.20;25.88;;;;;;;;;;5033510;28;20033;-56
2023/04/11 00:36:08;;;;;;;46.85;25.08;;;;;;;;;;5033127;28;20076;-56
2023/04/11 00:38:33;;;;;;;38.55;22.90;;;;;;;;;;5015967;28;20037;-56
2023/04/11 00:40:59;;;;;;;39.67;22.60;;;;;;;;;;5032479;28;20017;-56
2023/04/11 00:43:24;;;;;;;33.88;20.83;;;;;;;;;;5032502;28;20103;-56
2023/04/11 00:45:51;;;;;;;30.85;19.65;;;;;;;;;;5033754;28;20023;-56
2023/04/11 00:48:16;;;;;;;28.30;18.42;;;;;;;;;;5033614;28;20033;-56
2023/04/11 00:50:42;;;;;;;27.88;18.85;;;;;;;;;;5033456;28;20021;-56
2023/04/11 00:53:09;;;;;;;30.45;18.63;;;;;;;;;;5033543;28;20360;-56
2023/04/11 00:55:35;;;;;;;25.52;17.15;;;;;;;;;;5033681;28;20029;-56
2023/04/11 00:58:01;;;;;;;26.88;18.65;;;;;;;;;;5033039;28;20029;-58
2023/04/11 01:00:27;;;;;;;26.17;17.17;;;;;;;;;;5016011;28;20475;-55
2023/04/11 01:02:53;;;;;;;23.17;16.60;;;;;;;;;;5034021;28;20359;-55
2023/04/11 01:05:19;;;;;;;24.63;17.20;;;;;;;;;;5032133;28;20071;-56
2023/04/11 01:07:47;;;;;;;23.63;16.70;;;;;;;;;;5034325;28;20583;-56
2023/04/11 01:10:13;;;;;;;28.98;18.73;;;;;;;;;;5037405;28;20156;-55
2023/04/11 01:12:39;;;;;;;27.52;17.45;;;;;;;;;;5019577;28;20029;-55
2023/04/11 01:15:05;;;;;;;28.90;18.02;;;;;;;;;;5037313;28;20104;-56
2023/04/11 01:17:31;;;;;;;26.33;16.90;;;;;;;;;;5019926;28;20033;-55
2023/04/11 01:19:57;;;;;;;27.35;17.55;;;;;;;;;;5036776;28;20025;-55
2023/04/11 01:22:23;;;;;;;40.08;23.10;;;;;;;;;;5019897;28;20092;-55
2023/04/11 01:24:48;;;;;;;64.75;34.15;;;;;;;;;;5019424;28;20057;-55
2023/04/11 01:27:14;;;;;;;50.70;28.38;;;;;;;;;;5037177;28;20034;-55
2023/04/11 01:29:39;;;;;;;67.82;41.47;;;;;;;;;;5019676;28;20044;-56
2023/04/11 01:32:05;;;;;;;25.08;17.20;;;;;;;;;;5037676;28;20511;-56
2023/04/11 01:34:31;;;;;;;21.27;15.95;;;;;;;;;;5037316;28;20042;-57
2023/04/11 01:36:56;;;;;;;21.83;15.55;;;;;;;;;;5018952;28;20456;-57
2023/04/11 01:39:22;;;;;;;22.48;15.50;;;;;;;;;;5037118;28;20032;-56
2023/04/11 01:41:48;;;;;;;25.88;16.83;;;;;;;;;;5019406;28;20545;-56
2023/04/11 01:44:13;;;;;;;20.38;14.02;;;;;;;;;;5036620;28;20056;-56
2023/04/11 01:46:38;;;;;;;20.48;14.20;;;;;;;;;;5019210;28;20034;-56
2023/04/11 01:49:05;;;;;;;18.13;13.98;;;;;;;;;;5035566;28;20033;-56
2023/04/11 01:51:30;;;;;;;20.98;14.70;;;;;;;;;;5036395;28;20096;-55
2023/04/11 01:53:57;;;;;;;18.55;14.48;;;;;;;;;;5018519;28;20472;-56
2023/04/11 01:56:22;;;;;;;21.75;16.42;;;;;;;;;;5036929;28;20132;-56
2023/04/11 01:58:48;;;;;;;25.90;17.65;;;;;;;;;;5035295;28;20104;-56
2023/04/11 02:01:16;;;;;;;32.47;22.35;;;;;;;;;;5018861;28;20026;-56
2023/04/11 02:03:41;;;;;;;26.67;18.25;;;;;;;;;;5035669;28;20040;-56
2023/04/11 02:06:07;;;;;;;32.13;21.42;;;;;;;;;;5002345;28;20034;-56
2023/04/11 02:08:32;;;;;;;28.88;20.35;;;;;;;;;;5036338;28;20053;-56
2023/04/11 02:10:57;;;;;;;21.08;15.07;;;;;;;;;;5018849;28;20104;-55
2023/04/11 02:13:23;;;;;;;23.17;16.98;;;;;;;;;;5036372;28;20059;-55
2023/04/11 02:15:48;;;;;;;24.67;17.20;;;;;;;;;;5018686;28;20021;-55
2023/04/11 02:18:14;;;;;;;28.55;19.52;;;;;;;;;;5018594;28;20490;-56
2023/04/11 02:20:41;;;;;;;19.15;13.23;;;;;;;;;;5033704;28;20030;-56
2023/04/11 02:23:07;;;;;;;14.00;11.90;;;;;;;;;;5036758;28;20029;-56
2023/04/11 02:25:32;;;;;;;16.02;11.95;;;;;;;;;;5036719;28;20010;-55
2023/04/11 02:27:58;;;;;;;19.67;14.02;;;;;;;;;;5035059;28;20083;-56
2023/04/11 02:30:23;;;;;;;21.02;13.95;;;;;;;;;;5036084;28;20107;-56
2023/04/11 02:32:49;;;;;;;15.85;11.75;;;;;;;;;;5018044;28;20040;-56
2023/04/11 02:35:15;;;;;;;13.95;10.38;;;;;;;;;;5035655;28;20024;-55
2023/04/11 02:37:41;;;;;;;15.52;10.80;;;;;;;;;;5018415;28;20126;-55
2023/04/11 02:40:06;;;;;;;12.57;9.88;;;;;;;;;;5036298;28;20490;-56
2023/04/11 02:42:32;;;;;;;13.77;10.05;;;;;;;;;;5035873;28;20025;-56
2023/04/11 02:44:58;;;;;;;13.93;10.15;;;;;;;;;;5036201;28;20030;-56
2023/04/11 02:47:26;;;;;;;12.30;10.07;;;;;;;;;;5035040;28;20025;-55
2023/04/11 02:49:54;;;;;;;15.77;10.77;;;;;;;;;;5034322;28;20103;-55
2023/04/11 02:52:26;;;;;;;17.17;11.68;;;;;;;;;;5034061;28;20470;-55
2023/04/11 02:54:51;;;;;;;17.42;11.80;;;;;;;;;;5035317;28;20037;-55
2023/04/11 02:57:16;;;;;;;18.38;11.75;;;;;;;;;;5017808;28;20022;-56
2023/04/11 02:59:42;;;;;;;13.52;10.63;;;;;;;;;;5034269;28;20438;-56
2023/04/11 03:02:08;;;;;;;14.90;10.13;;;;;;;;;;5034230;28;20068;-56
2023/04/11 03:04:34;;;;;;;14.88;10.63;;;;;;;;;;5035120;28;20625;-56
2023/04/11 03:07:08;;;;;;;13.77;10.30;;;;;;;;;;5034191;28;20037;-56
2023/04/11 03:09:33;;;;;;;12.95;10.00;;;;;;;;;;5035575;28;20079;-56
2023/04/11 03:12:00;;;;;;;17.60;11.70;;;;;;;;;;5035311;28;20503;-56
2023/04/11 03:14:25;;;;;;;20.67;12.75;;;;;;;;;;5017206;28;20372;-56
2023/04/11 03:16:50;;;;;;;17.52;12.10;;;;;;;;;;5001179;28;20032;-56
2023/04/11 03:19:16;;;;;;;16.80;11.70;;;;;;;;;;5017030;28;20030;-56
2023/04/11 03:21:42;;;;;;;18.92;11.98;;;;;;;;;;5035134;28;20096;-55
2023/04/11 03:24:08;;;;;;;17.80;11.80;;;;;;;;;;5017536;28;20065;-56
2023/04/11 03:26:33;;;;;;;18.30;12.30;;;;;;;;;;5035153;28;20048;-55
2023/04/11 03:29:06;;;;;;;19.95;13.10;;;;;;;;;;5035141;28;20414;-56
2023/04/11 03:31:41;;;;;;;21.05;14.27;;;;;;;;;;5018695;28;20377;-56
2023/04/11 03:34:06;;;;;;;22.35;16.48;;;;;;;;;;5017056;28;20035;-56
2023/04/11 03:36:32;;;;;;;26.20;18.88;;;;;;;;;;5033709;28;20021;-56
2023/04/11 03:39:03;;;;;;;28.27;17.48;;;;;;;;;;5033743;28;20026;-56
2023/04/11 03:41:28;;;;;;;28.90;16.73;;;;;;;;;;5033992;28;20032;-55
2023/04/11 03:43:54;;;;;;;32.97;19.85;;;;;;;;;;5033799;28;20037;-56
2023/04/11 03:46:20;;;;;;;25.17;14.85;;;;;;;;;;5033586;28;20368;-56
2023/04/11 03:48:46;;;;;;;25.15;14.85;;;;;;;;;;5033725;28;20056;-55
2023/04/11 03:51:12;;;;;;;16.83;11.95;;;;;;;;;;5033559;28;20033;-56
2023/04/11 03:53:45;;;;;;;53.50;28.67;;;;;;;;;;5016800;28;20113;-56
2023/04/11 03:56:31;;;;;;;17.52;12.40;;;;;;;;;;5033372;28;20460;-56
2023/04/11 03:58:57;;;;;;;13.98;10.05;;;;;;;;;;5016819;28;20032;-56
2023/04/11 04:01:26;;;;;;;13.60;10.65;;;;;;;;;;5033069;28;20056;-56
2023/04/11 04:03:59;;;;;;;19.55;12.02;;;;;;;;;;5016914;28;20029;-56
2023/04/11 04:06:25;;;;;;;86.68;44.85;;;;;;;;;;5033463;28;20475;-56
2023/04/11 04:08:52;;;;;;;23.88;15.23;;;;;;;;;;5029896;28;20384;-56
2023/04/11 04:11:20;;;;;;;35.97;21.70;;;;;;;;;;5013645;28;20571;-55
2023/04/11 04:13:46;;;;;;;14.52;10.85;;;;;;;;;;5013008;28;20044;-55
2023/04/11 04:16:16;;;;;;;13.85;11.18;;;;;;;;;;5014245;28;20029;-55
2023/04/11 04:18:44;;;;;;;17.40;12.90;;;;;;;;;;5016526;28;20061;-55
2023/04/11 04:21:09;;;;;;;16.50;11.68;;;;;;;;;;5016192;28;20049;-54
2023/04/11 04:23:38;;;;;;;29.95;26.45;;;;;;;;;;5016504;28;20455;-54
2023/04/11 04:26:30;;;;;;;13.45;10.40;;;;;;;;;;5016525;28;20476;-54
2023/04/11 04:29:11;;;;;;;15.75;12.70;;;;;;;;;;5034792;28;20372;-54
2023/04/11 04:31:51;;;;;;;15.63;12.70;;;;;;;;;;5033905;28;20479;-54
2023/04/11 04:34:23;;;;;;;11.18;8.52;;;;;;;;;;5016191;28;20510;-55
2023/04/11 04:36:49;;;;;;;13.00;9.40;;;;;;;;;;5032642;28;20026;-54
2023/04/11 04:39:24;;;;;;;14.82;10.43;;;;;;;;;;5016662;28;20109;-54
2023/04/11 04:41:57;;;;;;;12.57;10.27;;;;;;;;;;5016567;28;20026;-54
2023/04/11 04:44:25;;;;;;;15.65;10.63;;;;;;;;;;5033727;28;20108;-54
2023/04/11 04:46:54;;;;;;;15.85;11.18;;;;;;;;;;5015731;28;20063;-54
2023/04/11 04:49:22;;;;;;;10.95;9.77;;;;;;;;;;5015701;28;20484;-54
2023/04/11 04:51:53;;;;;;;14.88;10.25;;;;;;;;;;5015708;28;20044;-54
2023/04/11 04:54:18;;;;;;;12.88;10.48;;;;;;;;;;5008721;28;20540;-54
2023/04/11 04:56:44;;;;;;;11.82;10.02;;;;;;;;;;4996343;28;20068;-54
2023/04/11 04:59:14;;;;;;;13.63;10.60;;;;;;;;;;5014395;28;20018;-54
2023/04/11 05:01:39;;;;;;;13.20;10.23;;;;;;;;;;4996795;28;20030;-54
2023/04/11 05:04:06;;;;;;;9.80;8.32;;;;;;;;;;5012638;28;20037;-54
2023/04/11 05:06:51;;;;;;;8.10;7.13;;;;;;;;;;4995729;28;20530;-54
2023/04/11 05:09:17;;;;;;;8.57;7.63;;;;;;;;;;4996417;28;20041;-54
2023/04/11 05:11:42;;;;;;;12.23;9.57;;;;;;;;;;5013981;28;20026;-54
2023/04/11 05:14:08;;;;;;;16.17;11.88;;;;;;;;;;4995498;28;20026;-54
2023/04/11 05:16:36;;;;;;;14.32;11.10;;;;;;;;;;5012344;28;20034;-54
2023/04/11 05:19:01;;;;;;;15.60;11.90;;;;;;;;;;5014210;28;20107;-54
2023/04/11 05:21:29;;;;;;;15.35;11.98;;;;;;;;;;5012912;28;20014;-55
2023/04/11 05:23:54;;;;;;;15.02;11.40;;;;;;;;;;5013518;28;20346;-55
2023/04/11 05:26:20;;;;;;;16.23;12.50;;;;;;;;;;4995723;28;20025;-54
2023/04/11 05:28:45;;;;;;;18.15;12.70;;;;;;;;;;4995804;28;20134;-60
2023/04/11 05:31:16;;;;;;;26.58;17.17;;;;;;;;;;4994870;28;20057;-54
2023/04/11 05:33:42;;;;;;;31.70;20.02;;;;;;;;;;4995285;28;20022;-60
2023/04/11 05:36:12;;;;;;;30.73;18.60;;;;;;;;;;4995276;28;20077;-61
2023/04/11 05:38:42;;;;;;;17.08;12.00;;;;;;;;;;4995349;28;20022;-61
2023/04/11 05:41:08;;;;;;;10.90;9.00;;;;;;;;;;5012802;28;20069;-61
2023/04/11 05:43:33;;;;;;;10.00;8.45;;;;;;;;;;5012691;28;20034;-61
2023/04/11 05:46:00;;;;;;;10.48;8.10;;;;;;;;;;5012458;28;20026;-61
2023/04/11 05:48:25;;;;;;;12.00;8.70;;;;;;;;;;5013443;28;20117;-61
2023/04/11 05:50:51;;;;;;;10.23;8.55;;;;;;;;;;5013709;28;20219;-61
2023/04/11 05:53:17;;;;;;;9.75;7.80;;;;;;;;;;5016583;28;20025;-61
2023/04/11 05:55:42;;;;;;;8.95;8.05;;;;;;;;;;5011323;28;20029;-61
2023/04/11 05:58:08;;;;;;;10.35;7.97;;;;;;;;;;5015788;28;20161;-61
2023/04/11 06:00:37;;;;;;;15.52;10.65;;;;;;;;;;5014128;28;20041;-61
2023/04/11 06:03:03;;;;;;;23.08;15.60;;;;;;;;;;5014718;28;20041;-61
2023/04/11 06:05:30;;;;;;;18.05;13.30;;;;;;;;;;5014586;28;20045;-61
2023/04/11 06:07:55;;;;;;;23.40;16.90;;;;;;;;;;5013293;28;20339;-61
2023/04/11 06:10:21;;;;;;;12.73;9.43;;;;;;;;;;5013360;28;20468;-61
2023/04/11 06:12:46;;;;;;;8.98;8.05;;;;;;;;;;5014368;28;20062;-61
2023/04/11 06:15:12;;;;;;;9.43;7.88;;;;;;;;;;5014633;28;20061;-61
2023/04/11 06:17:45;;;;;;;9.32;7.65;;;;;;;;;;5015845;28;20026;-61
2023/04/11 06:20:11;;;;;;;8.57;6.95;;;;;;;;;;4999503;28;20030;-61
2023/04/11 06:22:36;;;;;;;10.57;7.63;;;;;;;;;;5016936;28;20036;-60
2023/04/11 06:25:07;;;;;;;14.75;8.68;;;;;;;;;;5016331;28;20036;-61
2023/04/11 06:27:32;;;;;;;14.63;9.10;;;;;;;;;;5016806;28;20048;-61
2023/04/11 06:29:58;;;;;;;18.27;11.27;;;;;;;;;;5016239;28;20033;-61
2023/04/11 06:32:24;;;;;;;15.88;10.10;;;;;;;;;;5016211;28;20497;-61
2023/04/11 06:34:50;;;;;;;11.88;8.65;;;;;;;;;;5016361;28;20030;-55
2023/04/11 06:37:15;;;;;;;8.52;6.68;;;;;;;;;;5017594;23;20058;-61
2023/04/11 06:39:41;;;;;;;7.63;6.78;;;;;;;;;;5047810;22;20102;-60
2023/04/11 06:44:55;;;;;;;8.82;6.55;;;;;;;;;;5036982;22;20050;-53
2023/04/11 06:47:24;;;;;;;9.75;7.03;;;;;;;;;;5068913;22;20065;-61
2023/04/11 06:49:49;;;;;;;8.32;6.80;;;;;;;;;;5062352;23;20363;-61
2023/04/11 06:52:15;;;;;;;7.05;6.35;;;;;;;;;;5035664;28;20037;-61
2023/04/11 06:54:40;;;;;;;9.07;6.78;;;;;;;;;;5035556;28;20121;-61
2023/04/11 06:57:06;;;;;;;7.75;6.50;;;;;;;;;;5035577;28;20026;-61
2023/04/11 06:59:31;;;;;;;8.85;6.68;;;;;;;;;;5035520;28;20028;-61
2023/04/11 07:01:57;;;;;;;10.85;6.97;;;;;;;;;;5034317;28;20037;-61
2023/04/11 07:04:22;;;;;;;9.35;6.45;;;;;;;;;;5035420;28;20025;-61
2023/04/11 07:06:48;;;;;;;9.25;6.80;;;;;;;;;;5034721;28;20033;-61
2023/04/11 07:09:13;;;;;;;7.85;6.75;;;;;;;;;;5035358;28;20079;-61
2023/04/11 07:11:39;;;;;;;6.55;5.95;;;;;;;;;;5035192;28;20037;-61
2023/04/11 07:14:04;;;;;;;6.97;5.57;;;;;;;;;;5035162;28;20040;-61
2023/04/11 07:16:30;;;;;;;8.27;5.07;;;;;;;;;;5035093;28;20423;-61
2023/04/11 07:18:57;;;;;;;5.85;5.20;;;;;;;;;;5017411;28;20423;-61
2023/04/11 07:21:23;;;;;;;9.10;7.07;;;;;;;;;;5035276;28;20444;-61
2023/04/11 07:23:48;;;;;;;7.80;5.90;;;;;;;;;;5034934;28;20068;-61
2023/04/11 07:26:15;;;;;;;6.47;5.72;;;;;;;;;;5035005;28;20025;-61
2023/04/11 07:28:43;;;;;;;6.55;4.85;;;;;;;;;;5034897;28;20053;-61
2023/04/11 07:31:10;;;;;;;5.63;4.88;;;;;;;;;;5034743;28;20041;-61
2023/04/11 07:33:36;;;;;;;6.53;4.53;;;;;;;;;;5034512;28;20488;-61
2023/04/11 07:36:02;;;;;;;5.55;4.55;;;;;;;;;;5034869;28;20025;-61
2023/04/11 07:38:30;;;;;;;5.45;4.28;;;;;;;;;;5034858;28;20092;-61
2023/04/11 07:40:56;;;;;;;5.60;3.97;;;;;;;;;;5016982;28;20034;-61
2023/04/11 07:43:24;;;;;;;4.80;4.30;;;;;;;;;;5034609;28;20460;-61
2023/04/11 07:45:50;;;;;;;5.82;4.25;;;;;;;;;;5034567;28;20029;-61
2023/04/11 07:48:16;;;;;;;4.55;4.15;;;;;;;;;;5034794;28;20127;-61
2023/04/11 07:50:41;;;;;;;4.28;3.60;;;;;;;;;;5016719;28;20049;-61
2023/04/11 07:53:07;;;;;;;3.88;3.40;;;;;;;;;;5034418;28;20084;-61
2023/04/11 07:55:32;;;;;;;4.45;4.05;;;;;;;;;;5034366;28;20025;-61
2023/04/11 07:57:58;;;;;;;5.82;3.50;;;;;;;;;;5033173;28;20459;-61
2023/04/11 08:00:23;;;;;;;7.90;3.80;;;;;;;;;;5034136;28;20032;-61
2023/04/11 08:02:50;;;;;;;5.40;3.63;;;;;;;;;;5034269;28;20460;-61
2023/04/11 08:05:16;;;;;;;4.07;3.67;;;;;;;;;;5034246;28;20052;-61
2023/04/11 08:07:41;;;;;;;4.05;3.72;;;;;;;;;;5034409;28;20460;-61
2023/04/11 08:10:07;;;;;;;4.07;3.50;;;;;;;;;;5016429;28;20029;-61
2023/04/11 08:12:32;;;;;;;4.38;3.45;;;;;;;;;;5034169;28;20395;-61
2023/04/11 08:14:57;;;;;;;4.05;3.65;;;;;;;;;;5034084;28;20040;-61
2023/04/11 08:17:24;;;;;;;3.97;3.67;;;;;;;;;;5033211;28;20049;-61
2023/04/11 08:19:50;;;;;;;3.90;3.60;;;;;;;;;;5016304;28;20037;-61
2023/04/11 08:22:15;;;;;;;3.88;3.58;;;;;;;;;;5033912;28;20083;-61
2023/04/11 08:24:40;;;;;;;3.95;3.20;;;;;;;;;;5034163;28;20017;-61
2023/04/11 08:27:06;;;;;;;4.22;3.80;;;;;;;;;;5033854;28;20045;-61
2023/04/11 08:29:31;;;;;;;3.40;3.13;;;;;;;;;;5034100;28;20033;-61
2023/04/11 08:31:56;;;;;;;3.97;3.40;;;;;;;;;;5016458;28;20033;-61
2023/04/11 08:34:22;;;;;;;4.07;3.40;;;;;;;;;;5033716;28;20076;-61
2023/04/11 08:36:47;;;;;;;3.45;3.10;;;;;;;;;;5033808;28;20074;-61
2023/04/11 08:39:12;;;;;;;2.80;2.60;;;;;;;;;;5033686;28;20033;-61
2023/04/11 08:41:38;;;;;;;4.03;2.80;;;;;;;;;;5033715;28;20018;-61
2023/04/11 08:44:03;;;;;;;2.70;2.47;;;;;;;;;;5033709;28;20033;-61
2023/04/11 08:46:30;;;;;;;2.42;2.22;;;;;;;;;;5033937;28;20063;-54
2023/04/11 08:48:56;;;;;;;2.40;2.13;;;;;;;;;;5033689;28;20022;-61
2023/04/11 08:51:23;;;;;;;2.70;2.50;;;;;;;;;;5033374;28;20046;-61
2023/04/11 08:53:49;;;;;;;2.75;2.58;;;;;;;;;;5033474;28;20041;-53
2023/04/11 08:56:15;;;;;;;3.67;2.63;;;;;;;;;;5032328;28;20448;-54
2023/04/11 08:58:41;;;;;;;2.65;2.45;;;;;;;;;;5033778;28;20072;-54
2023/04/11 09:01:25;;;;;;;3.42;2.88;;;;;;;;;;5015699;28;20403;-54
2023/04/11 09:03:51;;;;;;;3.50;3.28;;;;;;;;;;5033475;28;20030;-54
2023/04/11 09:06:16;;;;;;;3.42;3.13;;;;;;;;;;5033454;28;20025;-54
2023/04/11 09:08:42;;;;;;;3.58;2.83;;;;;;;;;;5033405;28;20380;-53
2023/04/11 09:11:07;;;;;;;3.30;3.00;;;;;;;;;;5033415;28;20380;-54
2023/04/11 09:13:32;;;;;;;3.15;2.63;;;;;;;;;;5033394;28;20080;-54
2023/04/11 09:16:13;;;;;;;2.70;2.50;;;;;;;;;;5033913;28;20109;-54
2023/04/11 09:18:43;;;;;;;2.60;2.33;;;;;;;;;;5033391;28;20149;-53
2023/04/11 09:21:09;;;;;;;4.53;2.70;;;;;;;;;;5033356;28;20376;-54
2023/04/11 09:23:35;;;;;;;4.43;2.60;;;;;;;;;;5033711;28;20017;-53
2023/04/11 09:26:01;;;;;;;3.13;2.92;;;;;;;;;;5033403;28;20072;-53
2023/04/11 09:28:27;;;;;;;3.75;2.95;;;;;;;;;;5033640;28;20437;-53
2023/04/11 09:30:54;;;;;;;6.22;4.28;;;;;;;;;;5037122;28;20391;-54
2023/04/11 09:33:23;;;;;;;3.17;2.85;;;;;;;;;;5036989;28;20075;-54
2023/04/11 09:35:50;;;;;;;4.30;2.83;;;;;;;;;;5019245;28;20419;-54
2023/04/11 09:38:31;;;;;;;2.80;2.33;;;;;;;;;;5036953;28;20057;-53
2023/04/11 09:40:57;;;;;;;3.03;2.83;;;;;;;;;;5037096;28;20025;-54
2023/04/11 09:43:22;;;;;;;3.33;2.97;;;;;;;;;;5037405;28;20029;-54
2023/04/11 09:45:47;;;;;;;2.20;2.08;;;;;;;;;;5037005;28;20030;-54
2023/04/11 09:48:13;;;;;;;2.25;2.03;;;;;;;;;;5036809;28;20368;-54
2023/04/11 09:50:38;;;;;;;2.53;2.33;;;;;;;;;;5018766;28;20091;-54
2023/04/11 09:53:07;;;;;;;2.75;2.42;;;;;;;;;;5036606;28;20442;-54
2023/04/11 09:55:33;;;;;;;2.80;2.60;;;;;;;;;;5036761;28;20030;-53
2023/04/11 09:57:59;;;;;;;2.88;2.58;;;;;;;;;;5036739;28;20022;-54
2023/04/11 10:00:29;;;;;;;1.75;1.65;;;;;;;;;;5036836;28;20430;-54
2023/04/11 10:02:55;;;;;;;2.10;2.00;;;;;;;;;;5036542;28;20021;-53
2023/04/11 10:05:24;;;;;;;2.33;2.22;;;;;;;;;;5036517;28;20525;-53
2023/04/11 10:08:08;;;;;;;2.22;1.98;;;;;;;;;;5036458;28;20068;-54
2023/04/11 10:10:34;;;;;;;1.70;1.60;;;;;;;;;;5036769;28;20037;-54
2023/04/11 10:13:00;;;;;;;3.10;2.58;;;;;;;;;;5036322;28;20113;-54
2023/04/11 10:15:25;;;;;;;2.42;2.22;;;;;;;;;;5036299;28;20037;-53
2023/04/11 10:18:10;;;;;;;2.60;2.40;;;;;;;;;;5036331;28;20053;-54
2023/04/11 10:20:39;;;;;;;2.00;1.83;;;;;;;;;;5036696;28;20030;-54
2023/04/11 10:23:04;;;;;;;2.88;2.58;;;;;;;;;;5036113;28;20041;-54
2023/04/11 10:25:30;;;;;;;2.17;2.08;;;;;;;;;;5036165;28;20379;-54
2023/04/11 10:28:05;;;;;;;3.08;2.00;;;;;;;;;;5036152;28;20014;-54
2023/04/11 10:30:39;;;;;;;2.72;2.33;;;;;;;;;;5036035;28;20091;-53
2023/04/11 10:33:11;;;;;;;2.40;2.30;;;;;;;;;;5018178;28;20035;-54
2023/04/11 10:35:57;;;;;;;3.08;2.13;;;;;;;;;;5036054;28;20443;-54
2023/04/11 10:38:42;;;;;;;2.17;2.05;;;;;;;;;;5035912;28;20029;-54
2023/04/11 10:41:17;;;;;;;2.97;2.47;;;;;;;;;;5034808;28;20065;-54
2023/04/11 10:43:43;;;;;;;3.85;2.55;;;;;;;;;;5035785;28;20041;-54
2023/04/11 10:46:18;;;;;;;3.08;2.88;;;;;;;;;;5035831;28;20026;-54
2023/04/11 10:49:02;;;;;;;3.40;3.00;;;;;;;;;;5035728;28;20369;-54
2023/04/11 10:51:28;;;;;;;3.08;2.60;;;;;;;;;;5018191;28;20090;-54
2023/04/11 10:53:57;;;;;;;6.70;4.78;;;;;;;;;;5035591;28;20037;-54
2023/04/11 10:56:41;;;;;;;4.15;3.70;;;;;;;;;;5035801;28;20031;-54
2023/04/11 10:59:08;;;;;;;8.75;5.13;;;;;;;;;;5035566;28;20116;-54
2023/04/11 11:01:35;;;;;;;5.60;4.07;;;;;;;;;;5035547;28;20033;-54
2023/04/11 11:04:00;;;;;;;2.30;2.15;;;;;;;;;;5035441;28;20460;-53
2023/04/11 11:06:25;;;;;;;2.65;2.45;;;;;;;;;;5035357;28;20029;-53
2023/04/11 11:08:51;;;;;;;4.82;3.03;;;;;;;;;;5035294;28;20120;-54
2023/04/11 11:11:28;;;;;;;2.95;2.10;;;;;;;;;;5035529;28;20044;-54
2023/04/11 11:13:54;;;;;;;2.45;1.83;;;;;;;;;;5035133;28;20069;-54
2023/04/11 11:16:21;;;;;;;3.70;2.50;;;;;;;;;;5035083;28;20463;-53
2023/04/11 11:18:47;;;;;;;3.45;3.15;;;;;;;;;;5035330;28;20029;-54
2023/04/11 11:21:14;;;;;;;3.08;2.85;;;;;;;;;;5035053;28;20030;-54
2023/04/11 11:23:51;;;;;;;5.88;3.28;;;;;;;;;;5035082;28;20037;-53
2023/04/11 11:26:16;;;;;;;3.58;3.28;;;;;;;;;;5035232;28;20030;-53
2023/04/11 11:28:46;;;;;;;3.30;3.05;;;;;;;;;;5034923;28;20092;-53
2023/04/11 11:31:12;;;;;;;5.65;4.43;;;;;;;;;;5034917;28;20033;-54
2023/04/11 11:33:38;;;;;;;3.80;3.50;;;;;;;;;;5034857;28;20037;-54
2023/04/11 11:36:04;;;;;;;2.28;2.13;;;;;;;;;;5034932;28;20030;-54
2023/04/11 11:38:30;;;;;;;2.53;2.38;;;;;;;;;;5035003;28;20060;-53
2023/04/11 11:40:56;;;;;;;2.90;1.92;;;;;;;;;;5034904;28;20045;-53
2023/04/11 11:43:21;;;;;;;2.70;2.50;;;;;;;;;;5016889;28;20030;-54
2023/04/11 11:46:05;;;;;;;3.80;3.03;;;;;;;;;;5034633;28;20467;-54
2023/04/11 11:48:30;;;;;;;4.40;2.78;;;;;;;;;;5016793;28;20029;-54
2023/04/11 11:50:56;;;;;;;3.20;3.00;;;;;;;;;;5034337;28;20039;-53
2023/04/11 11:53:22;;;;;;;3.10;2.90;;;;;;;;;;5034300;28;20025;-54
2023/04/11 11:55:48;;;;;;;4.30;2.55;;;;;;;;;;5034382;28;20489;-54
2023/04/11 11:58:14;;;;;;;3.90;3.30;;;;;;;;;;5034353;28;20484;-54
2023/04/11 12:00:40;;;;;;;4.55;3.70;;;;;;;;;;5034507;28;20029;-54
2023/04/11 12:03:08;;;;;;;8.18;5.95;;;;;;;;;;5034403;28;20025;-54
2023/04/11 12:05:34;;;;;;;3.95;3.40;;;;;;;;;;5034443;28;20020;-54
2023/04/11 12:08:01;;;;;;;3.55;3.00;;;;;;;;;;5034210;28;20025;-54
2023/04/11 12:10:27;;;;;;;3.08;2.45;;;;;;;;;;5034310;28;20476;-54
2023/04/11 12:12:52;;;;;;;3.95;3.05;;;;;;;;;;5034133;28;20495;-54
2023/04/11 12:15:19;;;;;;;3.67;3.25;;;;;;;;;;5034000;28;20021;-54
2023/04/11 12:17:48;;;;;;;5.45;3.72;;;;;;;;;;5034057;28;20034;-53
2023/04/11 12:20:14;;;;;;;3.45;3.25;;;;;;;;;;5033999;28;20035;-53
2023/04/11 12:22:40;;;;;;;3.88;3.17;;;;;;;;;;5016200;28;20108;-53
2023/04/11 12:25:06;;;;;;;5.53;3.28;;;;;;;;;;5034030;28;20384;-54
2023/04/11 12:27:33;;;;;;;3.95;2.90;;;;;;;;;;5034119;28;20033;-53
2023/04/11 12:29:59;;;;;;;2.92;2.72;;;;;;;;;;5033860;28;20083;-53
2023/04/11 12:32:26;;;;;;;3.05;2.83;;;;;;;;;;5033836;28;20376;-53
2023/04/11 12:34:51;;;;;;;2.85;2.65;;;;;;;;;;5033768;28;20030;-53
2023/04/11 12:37:18;;;;;;;2.03;1.85;;;;;;;;;;5033831;28;20040;-53
2023/04/11 12:39:43;;;;;;;4.00;3.58;;;;;;;;;;5032693;28;20033;-54
2023/04/11 12:42:08;;;;;;;3.38;2.67;;;;;;;;;;5033916;28;20029;-53
2023/04/11 12:44:34;;;;;;;2.95;2.33;;;;;;;;;;5033889;28;20083;-54
2023/04/11 12:47:00;;;;;;;3.53;2.67;;;;;;;;;;5033623;28;20040;-54
2023/04/11 12:49:27;;;;;;;2.97;2.78;;;;;;;;;;5033838;28;20040;-54
2023/04/11 12:51:54;;;;;;;2.90;2.70;;;;;;;;;;5033422;28;20128;-53
2023/04/11 12:54:20;;;;;;;2.67;2.47;;;;;;;;;;5033565;28;20029;-54
2023/04/11 12:56:46;;;;;;;3.67;3.35;;;;;;;;;;5033536;28;20040;-54
2023/04/11 12:59:11;;;;;;;3.85;3.20;;;;;;;;;;5033624;28;20029;-53
2023/04/11 13:01:36;;;;;;;5.70;3.88;;;;;;;;;;5033531;28;20056;-53
2023/04/11 13:04:02;;;;;;;4.47;3.22;;;;;;;;;;5035126;28;20025;-54
2023/04/11 13:06:28;;;;;;;2.95;2.72;;;;;;;;;;5037610;28;20376;-53
2023/04/11 13:08:55;;;;;;;2.90;2.67;;;;;;;;;;5036563;28;20047;-54
2023/04/11 13:11:20;;;;;;;4.18;3.30;;;;;;;;;;5037473;28;20029;-54
2023/04/11 13:13:45;;;;;;;3.63;3.03;;;;;;;;;;5037430;28;20036;-53
2023/04/11 13:16:11;;;;;;;3.20;2.90;;;;;;;;;;5037450;28;20100;-53
2023/04/11 13:18:36;;;;;;;2.88;2.65;;;;;;;;;;5037467;28;20419;-54
2023/04/11 13:21:02;;;;;;;3.55;2.78;;;;;;;;;;5037325;28;20375;-54
2023/04/11 13:23:27;;;;;;;2.63;2.42;;;;;;;;;;5037278;28;20080;-54
2023/04/11 13:25:53;;;;;;;6.03;2.97;;;;;;;;;;5037536;28;20497;-53
2023/04/11 13:28:20;;;;;;;3.28;2.97;;;;;;;;;;5037024;28;20052;-53
2023/04/11 13:30:46;;;;;;;3.30;3.10;;;;;;;;;;5036282;28;20018;-53
2023/04/11 13:33:11;;;;;;;4.13;3.45;;;;;;;;;;5041599;28;20037;-54
2023/04/11 13:35:36;;;;;;;3.75;3.42;;;;;;;;;;5026308;28;20037;-54
2023/04/11 13:38:03;;;;;;;5.45;3.25;;;;;;;;;;5035129;28;20025;-54
2023/04/11 13:40:29;;;;;;;4.05;3.17;;;;;;;;;;5036184;28;20104;-54
2023/04/11 13:42:54;;;;;;;3.55;3.22;;;;;;;;;;5036540;28;20108;-60
2023/04/11 13:45:21;;;;;;;4.82;3.35;;;;;;;;;;5036755;28;20037;-53
2023/04/11 13:47:46;;;;;;;3.50;2.92;;;;;;;;;;5036557;28;20076;-54
2023/04/11 13:50:11;;;;;;;3.72;3.42;;;;;;;;;;5036209;28;20471;-61
2023/04/11 13:52:37;;;;;;;3.63;3.33;;;;;;;;;;5036030;28;20044;-61
2023/04/11 13:55:02;;;;;;;4.03;3.72;;;;;;;;;;5036522;28;20080;-54
2023/04/11 13:57:28;;;;;;;3.70;3.35;;;;;;;;;;5035813;28;20101;-54
2023/04/11 13:59:54;;;;;;;4.22;3.83;;;;;;;;;;5036047;28;20391;-54
2023/04/11 14:02:19;;;;;;;3.50;3.20;;;;;;;;;;5036185;28;20029;-61
2023/04/11 14:04:45;;;;;;;3.92;3.38;;;;;;;;;;5036213;28;20060;-61
2023/04/11 14:07:11;;;;;;;3.88;3.55;;;;;;;;;;5035997;28;20083;-61
2023/04/11 14:09:36;;;;;;;4.28;3.97;;;;;;;;;;5035705;28;20036;-61
2023/04/11 14:12:02;;;;;;;5.28;4.15;;;;;;;;;;5036248;28;20100;-61
2023/04/11 14:14:27;;;;;;;4.10;3.80;;;;;;;;;;5035379;28;20037;-61
2023/04/11 14:16:52;;;;;;;3.70;3.17;;;;;;;;;;5033562;28;20034;-61
2023/04/11 14:19:18;;;;;;;4.07;3.45;;;;;;;;;;5035870;28;20025;-61
2023/04/11 14:21:43;;;;;;;3.47;3.17;;;;;;;;;;5035881;28;20029;-61
2023/04/11 14:24:08;;;;;;;3.63;3.30;;;;;;;;;;5035883;28;20060;-61
2023/04/11 14:26:34;;;;;;;3.30;2.97;;;;;;;;;;5035868;28;20460;-61
2023/04/11 14:28:59;;;;;;;2.97;2.78;;;;;;;;;;5035813;28;20036;-61
2023/04/11 14:31:26;;;;;;;3.60;3.30;;;;;;;;;;5035656;28;20029;-61
2023/04/11 14:33:52;;;;;;;5.95;3.28;;;;;;;;;;5035438;28;20444;-61
2023/04/11 14:36:17;;;;;;;3.78;3.47;;;;;;;;;;5035608;28;20033;-61